Latest Coastal Weather Observations for Shark Bay Airport

IDW60701

Issued at 7:02 pm WST Tuesday 3 March 2015 (issued every 10 minutes, with the page automatically refreshed every 10 minutes)

About coastal observations | Map of coastal stations | Coastal observations for WA | Marine services | Other Formats
Station Details ID: 006105 Name: SHARK BAY AIRPORT Lat: -25.89 Lon: 113.58 Height: 33.8 m
Data from the previous 72 hours. | See also: Recent months for locations in Western Australia
Date/Time
WST
Temp

°C
Wind Pressure Rain
since 9am
mm
Weather Cloud Vis
km
Sea
Height
m
Swell
Dir
 
Speed
knots
Gust
knots
hPa Trend Height
m
Period
s
Dir
03/07:00pm 26.4 S 17 22 1008.5 - 0.0 - - - - - - -
03/06:30pm 28.0 S 17 22 1007.8 - 0.0 - - - - - - -
03/06:00pm 29.2 SSW 17 22 1007.7 - 0.0 - - - - - - -
03/05:30pm 30.1 S 17 23 1007.4 - 0.0 - - - - - - -
03/05:00pm 31.0 S 16 22 1007.3 - 0.0 - - - - - - -
03/04:30pm 32.1 SSW 18 22 1007.4 - 0.0 - - - - - - -
03/04:00pm 33.4 SSW 17 24 1007.2 - 0.0 - - - - - - -
03/03:48pm 33.8 SSW 15 22 1007.2 - 0.0 - - - - - - -
03/03:30pm 34.4 SE 12 19 1007.4 - 0.0 - - - - - - -
03/03:00pm 34.0 ESE 14 19 1008.0 - 0.0 - - - - - - -
03/02:30pm 35.2 SE 11 20 1008.5 - 0.0 - - - - - - -
03/02:00pm 34.5 ESE 13 19 1008.7 - 0.0 - - - - - - -
03/01:30pm 33.5 ESE 12 17 1009.0 - 0.0 - - - - - - -
03/01:00pm 33.9 SE 12 19 1009.2 - 0.0 - - - - - - -
03/12:30pm 32.7 SE 14 21 1009.6 - 0.0 - - - - - - -
03/12:00pm 32.4 SE 13 17 1010.2 - 0.0 - - - - - - -
03/11:30am 31.2 SE 14 20 1010.4 - 0.0 - - - - - - -
03/11:00am 31.1 ESE 13 19 1010.6 - 0.0 - - - - - - -
03/10:30am 30.4 SE 15 19 1010.8 - 0.0 - - - - - - -
03/10:00am 29.5 SE 15 21 1010.8 - 0.0 - - - - - - -
03/09:30am 29.1 SE 15 21 1010.8 - 0.0 - - - - - - -
03/09:00am 28.4 ESE 15 21 1010.9 - 0.0 - - - - - - -
03/08:30am 27.8 ESE 16 21 1010.9 - 0.0 - - - - - - -
03/08:00am 26.8 ESE 14 21 1010.6 - 0.0 - - - - - - -
03/07:30am 26.1 ESE 13 19 1010.6 - 0.0 - - - - - - -
03/07:00am 25.1 SE 9 13 1010.6 - 0.0 - - - - - - -
03/06:30am 24.3 SE 9 12 1010.4 - 0.0 - - - - - - -
03/06:00am 24.2 SSE 10 13 1010.0 - 0.0 - - - - - - -
03/05:30am 24.1 SE 8 11 1009.6 - 0.0 - - - - - - -
03/05:00am 24.2 SSE 7 10 1009.4 - 0.0 - - - - - - -
03/04:30am 24.5 SE 7 11 1009.2 - 0.0 - - - - - - -
03/04:00am 24.6 SSE 7 10 1009.0 - 0.0 - - - - - - -
03/03:30am 24.8 SSE 7 10 1008.9 - 0.0 - - - - - - -
03/03:00am 25.0 SSE 8 11 1008.7 - 0.0 - - - - - - -
03/02:30am 25.0 SSE 9 12 1008.6 - 0.0 - - - - - - -
03/02:00am 25.2 SSE 9 12 1008.7 - 0.0 - - - - - - -
03/01:30am 25.3 SSE 7 10 1008.7 - 0.0 - - - - - - -
03/01:00am 25.5 SSE 7 11 1008.7 - 0.0 - - - - - - -
03/12:30am 25.6 SSE 9 12 1008.7 - 0.0 - - - - - - -
03/12:00am 25.5 SSE 8 11 1008.6 - 0.0 - - - - - - -
 
Date/Time
WST
Temp

°C
Wind Pressure Rain
since 9am
mm
Weather Cloud Vis
km
Sea
Height
m
Swell
Dir
 
Speed
knots
Gust
knots
hPa Trend Height
m
Period
s
Dir
02/11:30pm 25.4 SSE 8 11 1008.6 - 0.0 - - - - - - -
02/11:00pm 25.1 SSE 9 11 1008.6 - 0.0 - - - - - - -
02/10:30pm 25.3 SSE 9 12 1008.6 - 0.0 - - - - - - -
02/10:00pm 25.4 SSE 9 15 1008.8 - 0.0 - - - - - - -
02/09:30pm 25.4 SSE 11 16 1008.8 - 0.0 - - - - - - -
02/09:00pm 25.3 S 10 15 1008.6 - 0.0 - - - - - - -
02/08:30pm 25.3 S 9 13 1008.3 - 0.0 - - - - - - -
02/08:00pm 25.6 S 12 15 1008.0 - 0.0 - - - - - - -
02/07:30pm 26.0 S 12 15 1007.6 - 0.0 - - - - - - -
02/07:00pm 27.5 SSE 11 15 1007.1 - 0.0 - - - - - - -
02/06:30pm 28.1 SSE 12 17 1006.6 - 0.0 - - - - - - -
02/06:00pm 28.9 SSE 12 17 1006.3 - 0.0 - - - - - - -
02/05:30pm 28.9 SSE 13 17 1005.9 - 0.0 - - - - - - -
02/05:00pm 29.6 SE 12 18 1005.7 - 0.0 - - - - - - -
02/04:30pm 30.0 ESE 14 18 1005.6 - 0.0 - - - - - - -
02/04:00pm 29.5 S 15 19 1005.7 - 0.0 - - - - - - -
02/03:30pm 31.0 S 16 25 1005.6 - 0.0 - - - - - - -
02/03:00pm 31.8 S 16 22 1005.5 - 0.0 - - - - - - -
02/02:30pm 32.1 S 13 19 1005.7 - 0.0 - - - - - - -
02/02:00pm 31.5 S 15 29 1005.8 - 0.0 - - - - - - -
02/01:58pm 31.6 S 15 29 1005.7 - 0.0 - - - - - - -
02/01:30pm 32.8 S 13 18 1005.8 - 0.0 - - - - - - -
02/01:00pm 30.8 S 13 19 1006.1 - 0.0 - - - - - - -
02/12:30pm 29.7 SSW 13 17 1006.5 - 0.0 - - - - - - -
02/12:00pm 28.6 SSW 12 18 1006.8 - 0.0 - - - - - - -
02/11:30am 28.2 SSE 9 13 1007.2 - 0.0 - - - - - - -
02/11:00am 28.7 SSE 9 13 1007.5 - 0.0 - - - - - - -
02/10:30am 28.2 SSE 10 13 1007.7 - 0.0 - - - - - - -
02/10:00am 27.6 SSE 11 15 1007.7 - 0.0 - - - - - - -
02/09:30am 27.6 S 9 12 1007.6 - 0.0 - - - - - - -
02/09:00am 27.5 S 9 15 1007.3 - 0.0 - - - - - - -
02/08:30am 27.3 SSE 9 12 1007.3 - 0.0 - - - - - - -
02/08:00am 26.7 S 9 12 1007.2 - 0.0 - - - - - - -
02/07:30am 24.8 S 8 11 1007.0 - 0.0 - - - - - - -
02/07:00am 24.1 SSE 8 11 1006.7 - 0.0 - - - - - - -
02/06:30am 23.5 S 7 11 1006.5 - 0.0 - - - - - - -
02/06:00am 23.3 S 7 9 1006.3 - 0.0 - - - - - - -
02/05:30am 23.2 S 9 11 1006.1 - 0.0 - - - - - - -
02/05:00am 23.2 S 10 14 1006.0 - 0.0 - - - - - - -
02/04:30am 23.1 S 13 16 1005.9 - 0.0 - - - - - - -
02/04:00am 23.3 S 12 16 1006.0 - 0.0 - - - - - - -
02/03:30am 23.2 S 11 15 1005.9 - 0.0 - - - - - - -
02/03:00am 23.2 S 11 16 1005.9 - 0.0 - - - - - - -
02/02:30am 23.3 S 13 16 1005.9 - 0.0 - - - - - - -
02/02:00am 23.3 S 12 17 1005.8 - 0.0 - - - - - - -
02/01:30am 23.5 S 13 19 1006.1 - 0.0 - - - - - - -
02/01:00am 23.5 S 13 18 1006.2 - 0.0 - - - - - - -
02/12:30am 23.6 SSW 11 15 1006.5 - 0.0 - - - - - - -
02/12:00am 23.7 SSW 11 16 1006.7 - 0.0 - - - - - - -
 
Date/Time
WST
Temp

°C
Wind Pressure Rain
since 9am
mm
Weather Cloud Vis
km
Sea
Height
m
Swell
Dir
 
Speed
knots
Gust
knots
hPa Trend Height
m
Period
s
Dir
01/11:30pm 23.6 SSW 12 15 1007.0 - 0.0 - - - - - - -
01/11:00pm 23.8 S 12 17 1007.1 - 0.0 - - - - - - -
01/10:30pm 24.0 S 10 15 1007.4 - 0.0 - - - - - - -
01/10:00pm 24.2 S 11 15 1007.5 - 0.0 - - - - - - -
01/09:30pm 24.3 S 11 16 1007.3 - 0.0 - - - - - - -
01/09:00pm 24.4 S 13 17 1007.1 - 0.0 - - - - - - -
01/08:30pm 24.5 S 14 20 1006.8 - 0.0 - - - - - - -
01/08:00pm 24.5 SSW 18 24 1006.6 - 0.0 - - - - - - -
01/07:30pm 24.9 SSW 16 22 1005.9 - 0.0 - - - - - - -
01/07:00pm 25.1 SSW 15 21 1005.5 - 0.0 - - - - - - -
01/06:30pm 25.5 SSW 17 23 1004.8 - 0.0 - - - - - - -
01/06:00pm 26.4 SW 17 24 1004.6 - 0.0 - - - - - - -
01/05:30pm 26.7 SW 19 25 1004.3 - 0.0 - - - - - - -
01/05:00pm 27.6 SW 18 24 1004.2 - 0.0 - - - - - - -
01/04:30pm 27.8 SW 19 25 1004.3 - 0.0 - - - - - - -
01/04:00pm 28.6 SW 17 22 1003.9 - 0.0 - - - - - - -
01/03:30pm 30.4 SW 17 23 1003.9 - 0.0 - - - - - - -
01/03:00pm 29.8 SW 18 25 1004.2 - 0.0 - - - - - - -
01/02:30pm 32.8 SW 16 21 1004.3 - 0.0 - - - - - - -
01/02:00pm 32.8 SW 14 19 1004.6 - 0.0 - - - - - - -
01/01:30pm 33.7 WSW 13 20 1004.8 - 0.0 - - - - - - -
01/01:00pm 33.4 SW 12 17 1005.1 - 0.0 - - - - - - -
01/12:30pm 33.9 SW 11 16 1005.3 - 0.0 - - - - - - -
01/12:00pm 32.3 SW 9 14 1005.7 - 0.0 - - - - - - -
01/11:30am 30.9 SW 12 16 1006.0 - 0.0 - - - - - - -
01/11:00am 34.1 NE 8 13 1006.1 - 0.0 - - - - - - -
01/10:30am 34.0 NE 8 13 1006.4 - 0.0 - - - - - - -
01/10:00am 32.5 E 7 11 1006.6 - 0.0 - - - - - - -
01/09:30am 31.8 E 9 15 1006.9 - 0.0 - - - - - - -
01/09:00am 31.1 ESE 6 9 1006.8 - 0.0 - - - - - - -
01/08:30am 29.4 SSE 8 11 1006.5 - 0.0 - - - - - - -
01/08:00am 27.8 S 8 11 1006.6 - 0.0 - - - - - - -
01/07:30am 26.2 SSE 8 12 1006.6 - 0.0 - - - - - - -
01/07:00am 24.7 SSE 8 11 1006.3 - 0.0 - - - - - - -
01/06:30am 23.8 SSE 7 9 1006.2 - 0.0 - - - - - - -
01/06:00am 23.8 SSE 8 11 1005.9 - 0.0 - - - - - - -
01/05:30am 23.8 S 8 11 1005.7 - 0.0 - - - - - - -
01/05:00am 23.9 S 10 13 1005.5 - 0.0 - - - - - - -
01/04:30am 23.9 S 9 14 1005.4 - 0.0 - - - - - - -
01/04:00am 24.1 S 9 11 1005.1 - 0.0 - - - - - - -
01/03:30am 24.3 S 9 15 1005.1 - 0.0 - - - - - - -
01/03:00am 24.5 S 10 13 1005.1 - 0.0 - - - - - - -
01/02:30am 24.7 S 11 16 1005.0 - 0.0 - - - - - - -
01/02:00am 24.7 S 11 15 1005.2 - 0.0 - - - - - - -
01/01:30am 24.7 S 10 14 1005.5 - 0.0 - - - - - - -
01/01:00am 24.5 S 9 12 1005.5 - 0.0 - - - - - - -
01/12:30am 24.7 S 9 13 1005.7 - 0.0 - - - - - - -
01/12:00am 24.8 S 9 11 1005.8 - 0.0 - - - - - - -
 
Date/Time
WST
Temp

°C
Wind Pressure Rain
since 9am
mm
Weather Cloud Vis
km
Sea
Height
m
Swell
Dir
 
Speed
knots
Gust
knots
hPa Trend Height
m
Period
s
Dir
28/11:30pm 24.8 S 9 13 1005.9 - 0.0 - - - - - - -
28/11:00pm 24.8 S 13 18 1006.1 - 0.0 - - - - - - -
28/10:30pm 24.8 SSW 17 22 1006.4 - 0.0 - - - - - - -
28/10:00pm 25.2 SSW 14 20 1006.8 - 0.0 - - - - - - -
28/09:30pm 25.7 S 13 19 1007.0 - 0.0 - - - - - - -
28/09:00pm 25.6 S 14 21 1006.9 - 0.0 - - - - - - -
28/08:30pm 25.5 SSW 16 21 1006.4 - 0.0 - - - - - - -
28/08:00pm 25.8 SSW 16 22 1006.1 - 0.0 - - - - - - -
28/07:30pm 26.2 SSW 16 22 1005.7 - 0.0 - - - - - - -

Other Formats:

Comma delimited format used in spreadsheet applications
http://www.bom.gov.au/fwo/IDW60701/IDW60701.95402.axf

JavaScript Object Notation format (JSON) in row-major order
http://www.bom.gov.au/fwo/IDW60701/IDW60701.95402.json